createdAt,value
2018-12-19T00:01:41.643Z,31.80
2018-12-19T00:04:17.745Z,28.10
2018-12-19T00:06:53.844Z,35.60
2018-12-19T00:09:29.867Z,38.47
2018-12-19T00:12:06.272Z,36.40
2018-12-19T00:14:42.716Z,30.80
2018-12-19T00:17:18.734Z,33.40
2018-12-19T00:19:55.024Z,32.10
2018-12-19T00:22:31.139Z,36.17
2018-12-19T00:25:08.261Z,36.37
2018-12-19T00:27:44.489Z,36.97
2018-12-19T00:30:20.490Z,29.87
2018-12-19T00:32:56.631Z,34.37
2018-12-19T00:35:32.937Z,28.73
2018-12-19T00:38:09.044Z,29.93
2018-12-19T00:40:45.028Z,45.47
2018-12-19T00:43:21.151Z,49.50
2018-12-19T00:45:57.171Z,48.77
2018-12-19T00:48:33.308Z,47.67
2018-12-19T00:51:09.615Z,61.07
2018-12-19T00:53:45.862Z,50.00
2018-12-19T00:56:22.016Z,65.53
2018-12-19T00:58:58.123Z,54.50
2018-12-19T01:01:34.131Z,41.47
2018-12-19T01:04:10.313Z,38.07
2018-12-19T01:06:46.262Z,51.37
2018-12-19T01:09:22.345Z,35.47
2018-12-19T01:11:58.168Z,28.77
2018-12-19T01:14:34.178Z,35.77
2018-12-19T01:17:10.187Z,33.87
2018-12-19T01:19:46.598Z,41.77
2018-12-19T01:22:22.623Z,41.17
2018-12-19T01:24:59.032Z,32.50
2018-12-19T01:27:35.047Z,38.70
2018-12-19T01:30:11.131Z,34.97
2018-12-19T01:32:47.169Z,30.57
2018-12-19T01:35:23.315Z,32.13
2018-12-19T01:37:59.304Z,34.80
2018-12-19T01:40:35.417Z,35.17
2018-12-19T01:43:11.385Z,32.50
2018-12-19T01:45:47.517Z,34.03
2018-12-19T01:48:24.397Z,58.63
2018-12-19T01:51:00.612Z,30.53
2018-12-19T01:53:36.570Z,33.23
2018-12-19T01:56:13.254Z,30.10
2018-12-19T01:58:49.316Z,31.77
2018-12-19T02:01:25.089Z,39.30
2018-12-19T02:04:01.147Z,43.13
2018-12-19T02:06:37.798Z,44.00
2018-12-19T02:09:15.235Z,38.93
2018-12-19T02:11:51.170Z,30.57
2018-12-19T02:14:27.215Z,36.03
2018-12-19T02:17:03.308Z,31.33
2018-12-19T02:19:39.355Z,30.33
2018-12-19T02:22:15.478Z,32.87
2018-12-19T02:24:52.378Z,30.43
2018-12-19T02:27:28.467Z,35.07
2018-12-19T02:30:06.157Z,33.40
2018-12-19T02:32:42.106Z,29.40
2018-12-19T02:35:18.155Z,31.73
2018-12-19T02:37:54.048Z,31.23
2018-12-19T02:40:30.277Z,29.63
2018-12-19T02:43:06.421Z,47.97
2018-12-19T02:45:42.382Z,52.90
2018-12-19T02:48:18.480Z,48.80
2018-12-19T02:50:54.538Z,44.57
2018-12-19T02:53:30.643Z,68.50
2018-12-19T02:56:06.610Z,57.07
2018-12-19T02:58:42.580Z,53.80
2018-12-19T03:01:18.427Z,43.67
2018-12-19T03:03:54.551Z,52.23
2018-12-19T03:06:30.577Z,42.33
2018-12-19T03:09:08.513Z,37.30
2018-12-19T03:11:44.844Z,36.93
2018-12-19T03:14:20.942Z,34.63
2018-12-19T03:16:56.959Z,31.17
2018-12-19T03:19:33.047Z,34.10
2018-12-19T03:22:08.894Z,38.53
2018-12-19T03:24:44.879Z,38.17
2018-12-19T03:27:21.205Z,38.97
2018-12-19T03:29:57.307Z,37.33
2018-12-19T03:32:33.318Z,31.37
2018-12-19T03:35:09.434Z,34.37
2018-12-19T03:37:45.429Z,31.37
2018-12-19T03:40:21.630Z,36.43
2018-12-19T03:42:57.614Z,24.23
2018-12-19T03:45:33.689Z,30.60
2018-12-19T03:51:18.569Z,33.20
2018-12-19T03:53:55.044Z,33.33
2018-12-19T03:56:31.276Z,36.77
2018-12-19T03:59:07.508Z,33.57
2018-12-19T04:01:47.023Z,31.50
2018-12-19T04:04:23.772Z,29.83
2018-12-19T04:07:00.569Z,28.00
2018-12-19T04:09:37.837Z,29.53
2018-12-19T04:12:14.378Z,32.50
2018-12-19T04:14:50.910Z,28.10
2018-12-19T04:17:27.052Z,34.60
2018-12-19T04:20:03.224Z,28.00
2018-12-19T04:22:39.322Z,37.50
2018-12-19T04:25:15.553Z,31.70
2018-12-19T04:27:51.674Z,30.27
2018-12-19T04:30:27.769Z,30.53
2018-12-19T04:33:03.975Z,34.93
2018-12-19T04:35:40.544Z,33.67
2018-12-19T04:38:17.172Z,34.10
2018-12-19T04:41:04.956Z,36.20
2018-12-19T04:47:15.800Z,55.07
2018-12-19T04:50:00.893Z,50.10
2018-12-19T04:53:05.703Z,54.97
2018-12-19T04:58:45.214Z,84.60
2018-12-19T05:01:21.519Z,46.87
2018-12-19T05:03:58.302Z,52.33
2018-12-19T05:06:34.390Z,57.40
2018-12-19T05:09:10.561Z,36.47
2018-12-19T05:11:47.077Z,42.50
2018-12-19T05:14:24.130Z,34.97
2018-12-19T05:17:00.773Z,29.87
2018-12-19T05:19:36.996Z,34.23
2018-12-19T05:22:13.358Z,61.07
2018-12-19T05:24:49.596Z,60.90
2018-12-19T05:27:25.736Z,78.27
2018-12-19T05:30:01.971Z,121.90
2018-12-19T05:32:38.714Z,75.17
2018-12-19T05:35:14.841Z,77.87
2018-12-19T05:37:51.285Z,75.03
2018-12-19T05:40:28.905Z,59.57
2018-12-19T05:43:05.136Z,48.73
2018-12-19T05:45:41.372Z,74.30
2018-12-19T05:48:19.169Z,68.53
2018-12-19T05:50:55.518Z,70.80
2018-12-19T05:53:32.269Z,51.13
2018-12-19T05:56:08.445Z,41.40
2018-12-19T05:58:44.523Z,49.03
2018-12-19T06:01:20.842Z,128.27
2018-12-19T06:03:56.995Z,120.53
2018-12-19T06:06:33.219Z,119.57
2018-12-19T06:09:09.382Z,92.43
2018-12-19T06:11:45.819Z,134.43
2018-12-19T06:14:23.016Z,167.10
2018-12-19T06:16:59.334Z,161.80
2018-12-19T06:19:35.426Z,146.70
2018-12-19T06:22:11.635Z,136.67
2018-12-19T06:24:47.765Z,141.00
2018-12-19T06:27:26.527Z,180.93
2018-12-19T06:30:02.746Z,187.93
2018-12-19T06:32:39.319Z,285.73
2018-12-19T06:35:15.414Z,220.80
2018-12-19T06:37:51.466Z,152.63
2018-12-19T06:40:32.661Z,137.53
2018-12-19T06:43:05.838Z,105.70
2018-12-19T06:45:41.841Z,154.20
2018-12-19T06:48:18.019Z,74.93
2018-12-19T06:50:54.158Z,55.67
2018-12-19T06:53:30.234Z,51.47
2018-12-19T06:56:06.469Z,78.37
2018-12-19T06:58:42.743Z,86.33
2018-12-19T07:01:19.308Z,87.40
2018-12-19T07:03:55.472Z,107.13
2018-12-19T07:06:31.766Z,134.77
2018-12-19T07:09:09.444Z,123.60
2018-12-19T07:11:45.527Z,108.23
2018-12-19T07:14:22.709Z,155.00
2018-12-19T07:16:58.842Z,117.53
2018-12-19T07:19:34.893Z,125.33
2018-12-19T07:22:11.111Z,123.37
2018-12-19T07:24:47.573Z,111.70
2018-12-19T07:27:23.920Z,105.43
2018-12-19T07:30:00.416Z,89.47
2018-12-19T07:32:36.317Z,88.53
2018-12-19T07:35:12.540Z,62.77
2018-12-19T07:37:48.918Z,87.77
2018-12-19T07:40:25.220Z,107.07
2018-12-19T07:43:01.346Z,115.67
2018-12-19T07:45:37.522Z,128.83
2018-12-19T07:48:14.291Z,135.17
2018-12-19T07:50:50.545Z,155.57
2018-12-19T07:53:27.245Z,129.10
2018-12-19T07:56:04.358Z,103.33
2018-12-19T07:58:40.639Z,118.37
2018-12-19T08:01:17.479Z,138.67
2018-12-19T08:03:53.790Z,110.47
2018-12-19T08:06:29.904Z,95.90
2018-12-19T08:09:08.564Z,189.80
2018-12-19T08:11:44.764Z,87.57
2018-12-19T08:14:20.919Z,78.63
2018-12-19T08:16:58.363Z,65.80
2018-12-19T08:19:35.514Z,72.47
2018-12-19T08:22:11.590Z,85.80
2018-12-19T08:24:47.647Z,69.43
2018-12-19T08:27:23.870Z,95.27
2018-12-19T08:29:59.996Z,71.00
2018-12-19T08:32:36.152Z,50.73
2018-12-19T08:35:12.380Z,43.77
2018-12-19T08:37:48.518Z,74.00
2018-12-19T08:40:24.681Z,53.83
2018-12-19T08:43:00.822Z,51.60
2018-12-19T08:45:37.430Z,151.87
2018-12-19T08:48:14.682Z,121.47
2018-12-19T08:50:51.591Z,44.50
2018-12-19T08:53:27.669Z,53.53
2018-12-19T08:56:03.764Z,59.33
2018-12-19T08:58:40.202Z,45.23
2018-12-19T09:01:16.402Z,44.57
2018-12-19T09:03:52.510Z,39.20
2018-12-19T09:06:28.520Z,50.17
2018-12-19T09:09:08.147Z,44.53
2018-12-19T09:11:44.339Z,63.13
2018-12-19T09:14:20.410Z,58.00
2018-12-19T09:16:56.439Z,59.13
2018-12-19T09:19:33.073Z,55.90
2018-12-19T09:22:09.711Z,179.47
2018-12-19T09:24:46.703Z,42.33
2018-12-19T09:27:22.817Z,44.83
2018-12-19T09:29:59.647Z,42.60
2018-12-19T09:32:35.866Z,47.03
2018-12-19T09:35:14.511Z,43.70
2018-12-19T09:37:50.744Z,61.73
2018-12-19T09:40:27.040Z,84.00
2018-12-19T09:43:03.279Z,61.07
2018-12-19T09:45:39.543Z,100.67
2018-12-19T09:48:15.621Z,47.90
2018-12-19T09:50:51.799Z,50.93
2018-12-19T09:53:28.475Z,31.33
2018-12-19T09:56:04.898Z,47.90
2018-12-19T09:58:41.414Z,38.00
2018-12-19T10:01:17.407Z,39.73
2018-12-19T10:03:53.530Z,29.27
2018-12-19T10:06:29.670Z,54.13
2018-12-19T10:09:14.531Z,46.60
2018-12-19T10:11:46.359Z,36.47
2018-12-19T10:14:23.966Z,39.83
2018-12-19T10:17:00.862Z,48.30
2018-12-19T10:19:37.719Z,42.17
2018-12-19T10:22:17.984Z,60.90
2018-12-19T10:25:00.686Z,64.87
2018-12-19T10:27:36.954Z,52.43
2018-12-19T10:30:14.645Z,42.73
2018-12-19T10:32:58.327Z,48.43
2018-12-19T10:35:34.656Z,63.60
2018-12-19T10:38:12.406Z,52.97
2018-12-19T10:40:48.635Z,47.93
2018-12-19T10:43:24.952Z,52.17
2018-12-19T10:46:01.387Z,62.03
2018-12-19T10:48:37.691Z,46.30
2018-12-19T10:51:13.982Z,36.53
2018-12-19T10:53:50.727Z,60.87
2018-12-19T10:56:26.868Z,44.10
2018-12-19T10:59:03.068Z,45.17
2018-12-19T11:01:39.096Z,45.50
2018-12-19T11:04:15.542Z,40.43
2018-12-19T11:06:51.730Z,54.20
2018-12-19T11:09:28.031Z,55.87
2018-12-19T11:12:04.275Z,73.60
2018-12-19T11:14:40.244Z,51.97
2018-12-19T11:17:16.435Z,92.27
2018-12-19T11:19:52.675Z,50.53
2018-12-19T11:22:28.836Z,52.03
2018-12-19T11:25:05.790Z,44.77
2018-12-19T11:27:42.475Z,51.20
2018-12-19T11:30:18.492Z,44.10
2018-12-19T11:32:56.248Z,36.97
2018-12-19T11:35:32.534Z,38.60
2018-12-19T11:38:08.970Z,45.43
2018-12-19T11:40:45.148Z,37.83
2018-12-19T11:43:21.394Z,56.63
2018-12-19T11:45:57.516Z,42.27
2018-12-19T11:48:33.638Z,32.37
2018-12-19T11:51:09.719Z,46.70
2018-12-19T11:53:45.912Z,48.27
2018-12-19T11:56:22.091Z,49.53
2018-12-19T11:58:58.616Z,54.97
2018-12-19T12:01:41.196Z,65.03
2018-12-19T12:04:13.695Z,49.50
2018-12-19T12:06:50.550Z,44.77
2018-12-19T12:09:26.636Z,49.57
2018-12-19T12:12:03.003Z,81.33
2018-12-19T12:14:39.361Z,57.37
2018-12-19T12:17:15.820Z,73.30
2018-12-19T12:19:54.313Z,76.07
2018-12-19T12:22:32.301Z,50.30
2018-12-19T12:25:09.841Z,61.90
2018-12-19T12:27:48.523Z,42.53
2018-12-19T12:30:25.480Z,87.30
2018-12-19T12:33:01.793Z,46.13
2018-12-19T12:35:39.470Z,56.50
2018-12-19T12:38:15.744Z,43.67
2018-12-19T12:40:51.960Z,40.20
2018-12-19T12:43:23.042Z,40.57
2018-12-19T12:45:54.295Z,59.53
2018-12-19T12:48:25.816Z,64.33
2018-12-19T12:50:56.892Z,67.53
2018-12-19T12:53:28.000Z,41.93
2018-12-19T12:55:59.079Z,45.03
2018-12-19T12:58:30.169Z,38.03
2018-12-19T13:01:01.257Z,54.97
2018-12-19T13:03:32.326Z,60.40
2018-12-19T13:06:03.380Z,54.27
2018-12-19T13:08:34.519Z,63.50
2018-12-19T13:11:06.320Z,60.40
2018-12-19T13:13:37.486Z,60.83
2018-12-19T13:16:08.607Z,55.80
2018-12-19T13:18:39.688Z,43.93
2018-12-19T13:21:10.752Z,50.37
2018-12-19T13:23:42.772Z,49.43
2018-12-19T13:26:14.383Z,47.37
2018-12-19T13:28:45.467Z,48.93
2018-12-19T13:31:18.404Z,54.67
2018-12-19T13:33:49.487Z,96.97
2018-12-19T13:36:47.577Z,37.30
2018-12-19T13:42:24.343Z,66.40
2018-12-19T13:44:58.401Z,83.70
2018-12-19T13:47:30.937Z,70.17
2018-12-19T13:50:02.623Z,117.47
2018-12-19T13:52:33.873Z,75.23
2018-12-19T13:55:06.033Z,86.47
2018-12-19T13:57:37.135Z,80.37
2018-12-19T14:00:10.783Z,47.17
2018-12-19T14:02:41.769Z,92.10
2018-12-19T14:05:13.340Z,84.77
2018-12-19T14:07:44.375Z,69.40
2018-12-19T14:10:15.483Z,83.17
2018-12-19T14:12:47.094Z,77.17
2018-12-19T14:15:18.065Z,83.97
2018-12-19T14:17:49.347Z,90.07
2018-12-19T14:20:20.353Z,88.47
2018-12-19T14:22:51.542Z,95.93
2018-12-19T14:25:22.652Z,93.40
2018-12-19T14:27:54.262Z,151.93
2018-12-19T14:30:25.573Z,200.73
2018-12-19T14:32:56.741Z,187.43
2018-12-19T14:35:27.839Z,169.47
2018-12-19T14:37:59.034Z,335.50
2018-12-19T14:40:30.526Z,284.43
2018-12-19T14:43:01.696Z,195.97
2018-12-19T14:45:32.751Z,136.07
2018-12-19T14:48:04.043Z,127.97
2018-12-19T14:50:35.140Z,138.53
2018-12-19T14:53:06.220Z,180.33
2018-12-19T14:55:37.357Z,162.90
2018-12-19T14:58:08.553Z,161.40
2018-12-19T15:00:39.658Z,128.27
2018-12-19T15:03:10.803Z,182.60
2018-12-19T15:05:41.887Z,37.97
2018-12-19T15:08:13.052Z,60.03
2018-12-19T15:10:44.324Z,69.67
2018-12-19T15:13:16.553Z,99.27
2018-12-19T15:15:53.001Z,46.23
2018-12-19T15:18:24.417Z,56.43
2018-12-19T15:20:55.552Z,65.97
2018-12-19T15:23:26.709Z,334.57
2018-12-19T15:25:57.821Z,80.10
2018-12-19T15:28:29.315Z,86.57
2018-12-19T15:31:00.418Z,131.23
2018-12-19T15:33:31.632Z,87.43
2018-12-19T15:36:03.509Z,49.60
2018-12-19T15:38:34.502Z,59.37
2018-12-19T15:41:05.717Z,100.63
2018-12-19T15:43:36.868Z,86.40
2018-12-19T15:46:08.002Z,58.90
2018-12-19T15:48:39.086Z,72.03
2018-12-19T15:51:10.195Z,82.50
2018-12-19T15:53:41.373Z,140.70
2018-12-19T15:56:12.482Z,93.53
2018-12-19T15:58:43.741Z,277.80
2018-12-19T16:01:14.766Z,343.93
2018-12-19T16:03:45.945Z,288.00
2018-12-19T16:06:17.059Z,144.50
2018-12-19T16:08:48.233Z,79.77
2018-12-19T16:11:19.344Z,79.33
2018-12-19T16:13:51.373Z,59.43
2018-12-19T16:16:22.573Z,259.63
2018-12-19T16:18:53.792Z,85.57
2018-12-19T16:21:24.881Z,306.50
2018-12-19T16:23:56.049Z,430.10
2018-12-19T16:26:27.145Z,595.43
2018-12-19T16:28:58.950Z,438.97
2018-12-19T16:31:30.086Z,430.37
2018-12-19T16:34:01.244Z,521.60
2018-12-19T16:36:32.339Z,434.37
2018-12-19T16:39:08.740Z,326.77
2018-12-19T16:41:39.883Z,341.60
2018-12-19T16:44:11.141Z,282.87
2018-12-19T16:46:42.149Z,259.83
2018-12-19T16:49:14.272Z,289.93
2018-12-19T16:51:45.396Z,222.53
2018-12-19T16:54:16.558Z,228.30
2018-12-19T16:56:47.646Z,177.00
2018-12-19T16:59:18.899Z,106.10
2018-12-19T17:01:49.922Z,138.83
2018-12-19T17:04:21.153Z,144.03
2018-12-19T17:06:52.265Z,132.03
2018-12-19T17:09:26.160Z,129.50
2018-12-19T17:11:57.272Z,116.00
2018-12-19T17:14:28.570Z,106.57
2018-12-19T17:16:59.974Z,168.93
2018-12-19T17:19:31.112Z,368.07
2018-12-19T17:22:04.783Z,548.73
2018-12-19T17:24:41.014Z,720.60
2018-12-19T17:27:12.172Z,887.97
2018-12-19T17:29:43.665Z,554.73
2018-12-19T17:35:04.237Z,391.33
2018-12-19T17:37:36.619Z,553.17
2018-12-19T17:40:09.407Z,438.43
2018-12-19T17:42:40.529Z,402.77
2018-12-19T17:45:11.752Z,348.70
2018-12-19T17:47:42.847Z,261.17
2018-12-19T17:50:14.020Z,266.87
2018-12-19T17:52:45.128Z,293.97
2018-12-19T17:55:16.275Z,427.30
2018-12-19T17:57:47.404Z,406.30
2018-12-19T18:00:18.670Z,433.40
2018-12-19T18:02:49.703Z,428.83
2018-12-19T18:05:20.912Z,386.73
2018-12-19T18:07:51.946Z,350.23
2018-12-19T18:10:23.184Z,290.77
2018-12-19T18:12:54.316Z,315.57
2018-12-19T18:15:26.683Z,315.70
2018-12-19T18:17:58.099Z,249.33
2018-12-19T18:20:29.362Z,272.00
2018-12-19T18:23:00.399Z,324.10
2018-12-19T18:25:32.016Z,377.17
2018-12-19T18:28:03.042Z,334.63
2018-12-19T18:30:34.246Z,289.70
2018-12-19T18:33:05.289Z,299.07
2018-12-19T18:35:36.454Z,337.03
2018-12-19T18:38:07.569Z,309.60
2018-12-19T18:40:38.762Z,242.40
2018-12-19T18:43:12.928Z,237.90
2018-12-19T18:45:42.946Z,289.90
2018-12-19T18:48:13.998Z,157.47
2018-12-19T18:50:45.328Z,219.47
2018-12-19T18:53:16.271Z,157.47
2018-12-19T18:55:47.467Z,112.30
2018-12-19T18:58:18.847Z,201.43
2018-12-19T19:00:50.113Z,159.57
2018-12-19T19:03:21.167Z,436.43
2018-12-19T19:05:52.467Z,268.10
2018-12-19T19:08:23.757Z,220.90
2018-12-19T19:10:54.932Z,208.57
2018-12-19T19:13:26.050Z,213.47
2018-12-19T19:15:57.279Z,292.07
2018-12-19T19:18:28.348Z,197.60
2018-12-19T19:20:59.753Z,184.20
2018-12-19T19:23:30.955Z,137.00
2018-12-19T19:26:02.107Z,118.03
2018-12-19T19:28:33.247Z,129.67
2018-12-19T19:31:04.854Z,103.13
2018-12-19T19:33:36.671Z,109.40
2018-12-19T19:36:07.641Z,179.83
2018-12-19T19:38:38.755Z,180.77
2018-12-19T19:41:14.116Z,186.73
2018-12-19T19:43:47.570Z,201.63
2018-12-19T19:46:22.295Z,218.70
2018-12-19T19:48:55.578Z,205.53
2018-12-19T19:51:28.737Z,192.77
2018-12-19T19:54:02.566Z,188.60
2018-12-19T19:56:33.828Z,262.83
2018-12-19T19:59:06.694Z,157.07
2018-12-19T20:01:39.243Z,139.33
2018-12-19T20:04:10.674Z,125.50
2018-12-19T20:06:43.087Z,169.97
2018-12-19T20:09:14.538Z,162.77
2018-12-19T20:11:47.515Z,151.77
2018-12-19T20:14:20.176Z,210.00
2018-12-19T20:16:56.979Z,274.77
2018-12-19T20:19:36.294Z,234.00
2018-12-19T20:22:08.301Z,231.80
2018-12-19T20:24:39.977Z,262.73
2018-12-19T20:27:12.175Z,291.97
2018-12-19T20:29:43.158Z,277.60
2018-12-19T20:32:14.390Z,186.40
2018-12-19T20:34:45.454Z,162.90
2018-12-19T20:37:17.533Z,200.50
2018-12-19T20:39:48.616Z,312.13
2018-12-19T20:42:19.538Z,440.90
2018-12-19T20:44:50.603Z,380.33
2018-12-19T20:47:21.790Z,333.10
2018-12-19T20:49:52.890Z,257.10
2018-12-19T20:52:24.066Z,257.17
2018-12-19T20:54:55.223Z,301.33
2018-12-19T20:57:26.339Z,401.20
2018-12-19T21:00:02.707Z,473.47
2018-12-19T21:02:38.819Z,293.00
2018-12-19T21:05:15.170Z,313.80
2018-12-19T21:07:51.279Z,260.97
2018-12-19T21:10:28.035Z,198.10
2018-12-19T21:13:03.983Z,148.87
2018-12-19T21:15:39.964Z,213.10
2018-12-19T21:18:21.221Z,422.20
2018-12-19T21:20:57.338Z,224.67
2018-12-19T21:23:33.473Z,219.87
2018-12-19T21:29:13.459Z,132.07
2018-12-19T21:31:50.285Z,129.47
2018-12-19T21:34:27.747Z,232.20
2018-12-19T21:37:05.844Z,220.73
2018-12-19T21:39:42.403Z,201.70
2018-12-19T21:42:19.177Z,160.33
2018-12-19T21:44:55.695Z,153.63
2018-12-19T21:47:31.912Z,78.27
2018-12-19T21:50:08.818Z,86.37
2018-12-19T21:52:46.705Z,84.20
2018-12-19T21:55:23.067Z,139.83
2018-12-19T21:58:00.182Z,132.77
2018-12-19T22:00:38.117Z,119.70
2018-12-19T22:03:14.306Z,127.00
2018-12-19T22:05:51.186Z,158.83
2018-12-19T22:08:27.668Z,167.17
2018-12-19T22:14:07.876Z,170.60
2018-12-19T22:16:49.500Z,161.27
2018-12-19T22:19:25.651Z,136.33
2018-12-19T22:22:01.699Z,119.73
2018-12-19T22:24:37.774Z,114.50
2018-12-19T22:27:14.073Z,117.63
2018-12-19T22:29:50.176Z,108.07
2018-12-19T22:32:26.490Z,124.77
2018-12-19T22:35:02.632Z,148.53
2018-12-19T22:37:39.021Z,163.00
2018-12-19T22:40:15.369Z,166.37
2018-12-19T22:42:54.162Z,197.60
2018-12-19T22:45:30.552Z,159.63
2018-12-19T22:48:07.276Z,200.33
2018-12-19T22:50:43.586Z,278.17
2018-12-19T22:53:19.604Z,315.23
2018-12-19T22:55:55.986Z,202.67
2018-12-19T22:58:32.009Z,139.80
2018-12-19T23:01:13.781Z,107.40
2018-12-19T23:03:55.157Z,96.67
2018-12-19T23:06:31.432Z,348.70
2018-12-19T23:09:08.188Z,129.13
2018-12-19T23:11:44.387Z,136.87
2018-12-19T23:14:20.811Z,153.77
2018-12-19T23:17:00.130Z,149.10
2018-12-19T23:19:36.474Z,139.43
2018-12-19T23:22:12.650Z,122.67
2018-12-19T23:24:55.015Z,128.33
2018-12-19T23:27:31.751Z,155.70
2018-12-19T23:30:09.244Z,136.30
2018-12-19T23:32:45.173Z,141.17
2018-12-19T23:35:21.784Z,129.57
2018-12-19T23:37:58.770Z,129.70
2018-12-19T23:40:34.826Z,120.17
2018-12-19T23:43:11.035Z,103.87
2018-12-19T23:45:47.534Z,115.93
2018-12-19T23:48:23.663Z,117.00
2018-12-19T23:50:59.739Z,127.60
2018-12-19T23:53:36.068Z,143.77
2018-12-19T23:57:36.699Z,102.27
